Port Chester, New York
Current Conditions -  °F | °C
As of 2:56 PM on Friday 31 Oct 2014 (Local Time) from KHPN Reporting Station
Broken Clouds Broken Clouds  
Wind Chill: 12°   Ceiling: 10000
Heat Index: 12°   Visibility: 10mi
Dew Point:   Wind: 6mph
Humidity: 50%   Direction: 30°NNE
Pressure: 29.91"   Gusts: NA
Location:  41°N, 73.67°W
Report Text: KHPN 311856Z 03005KT 10SM SCT050 BKN100 12/02 A2991 RMK AO2 SLP132 T01170017
Loading
Personal Weather Stations






























Interactive Weather Map
Tropical Storm Tracking
New forecast layout! Learn more

10-Day Weather Forecast

Advertisements
Track Severe Weather on mobile